If you wish to contribute or participate in the discussions about articles you are invited to join SKYbrary as a registered user

 Actions

El Golea Airport

From SKYbrary Wiki

DAUE
Airport
ICAO: DAUE – IATA: ELG
Summary
Name El Golea Airport
Region Africa
Territory Algeria DZ.gif
Location , Ghardaia
Serving El Golea
Elevation 398.069 m
1,306 ft
1,306 ft398.069 m
Type medium airport
Coordinates 30° 34' 16.66" N, 2° 51' 34.51" E
Runways
Designator Length Width Surface ROPS
10/28 1800 m5,905.512 ft
45 m147.638 ft
ASP /
18/36 3000 m9,842.52 ft
45 m147.638 ft
ASP /


METAR
Observation DAUE 171100Z 10007KT CAVOK 28/10 Q1019
Station El Golea
Date/Time 17 October 2019 11:00:00
Wind direction 100°
Wind speed 07 kts
Lowest cloud amount clouds and visibility OK
Temperature 28°C
Dew point 10°C
Humidity 32%
QNH 1019 hPa
Weather condition n/a